Time;durP1;ratioP1;P1;durP2;ratioP2;P2;SDS_P1;SDS_P2;PMS_P1;PMS_P2;Temp;Humidity;BMP_temperature;BMP_pressure;BME280_temperature;BME280_humidity;BME280_pressure;Samples;Min_cycle;Max_cycle;Signal;HPM_P1;HPM_P2
2022/07/10 00:01:31;;;;;;;3.95;1.20;;;15.60;99.90;;;;;;4984537;28;20045;-55
2022/07/10 00:03:58;;;;;;;1.25;1.15;;;15.60;99.90;;;;;;4988317;28;20778;-56
2022/07/10 00:06:25;;;;;;;5.47;1.38;;;15.60;99.90;;;;;;4988475;28;20029;-56
2022/07/10 00:08:54;;;;;;;2.65;1.30;;;15.60;99.90;;;;;;4990397;28;20033;-57
2022/07/10 00:11:21;;;;;;;1.45;1.20;;;15.60;99.90;;;;;;4992770;28;20384;-56
2022/07/10 00:13:48;;;;;;;5.78;1.83;;;15.70;99.90;;;;;;5001679;28;20210;-56
2022/07/10 00:16:14;;;;;;;;;;;15.70;99.90;;;;;;5010811;28;20597;-55
2022/07/10 00:18:41;;;;;;;1.73;1.30;;;15.60;99.90;;;;;;5006132;28;20571;-55
2022/07/10 00:21:09;;;;;;;1.83;1.40;;;15.70;99.90;;;;;;5010299;28;20040;-57
2022/07/10 00:23:36;;;;;;;;;;;15.70;99.90;;;;;;5006875;28;20048;-57
2022/07/10 00:26:03;;;;;;;3.35;1.08;;;15.70;99.90;;;;;;5009747;28;20458;-55
2022/07/10 00:28:30;;;;;;;4.07;1.45;;;15.70;99.90;;;;;;5008940;28;20043;-56
2022/07/10 00:30:57;;;;;;;2.25;1.45;;;15.80;99.90;;;;;;5008388;28;20032;-55
2022/07/10 00:33:24;;;;;;;1.63;1.17;;;15.80;99.90;;;;;;5008370;28;20358;-55
2022/07/10 00:35:51;;;;;;;4.45;1.45;;;15.80;99.90;;;;;;5003662;28;20036;-56
2022/07/10 00:38:18;;;;;;;2.78;1.42;;;15.80;99.90;;;;;;4993748;28;20040;-54
2022/07/10 00:40:45;;;;;;;3.60;1.60;;;15.70;99.90;;;;;;4987483;28;20590;-55
2022/07/10 00:43:12;;;;;;;2.85;1.40;;;15.60;99.90;;;;;;4989873;28;20243;-56
2022/07/10 00:45:39;;;;;;;2.03;1.35;;;15.60;99.90;;;;;;4986161;28;20156;-54
2022/07/10 00:48:06;;;;;;;2.42;1.52;;;15.60;99.90;;;;;;4992025;28;20548;-54
2022/07/10 00:50:33;;;;;;;1.67;1.55;;;15.50;99.90;;;;;;4991064;28;20223;-57
2022/07/10 00:53:02;;;;;;;2.40;1.48;;;15.40;99.90;;;;;;4986707;28;20567;-55
2022/07/10 00:55:30;;;;;;;2.70;1.63;;;15.40;99.90;;;;;;4990058;28;20048;-56
2022/07/10 00:57:58;;;;;;;1.73;1.58;;;15.20;99.90;;;;;;4988229;28;20051;-56
2022/07/10 01:00:26;;;;;;;2.65;1.83;;;15.20;99.90;;;;;;5005543;28;20047;-56
2022/07/10 01:02:54;;;;;;;1.58;1.27;;;15.10;99.90;;;;;;5007702;28;20330;-55
2022/07/10 01:05:21;;;;;;;2.83;1.75;;;15.10;99.90;;;;;;5003345;28;20044;-54
2022/07/10 01:07:48;;;;;;;3.63;1.65;;;15.10;99.90;;;;;;5007750;28;20551;-54
2022/07/10 01:10:15;;;;;;;2.63;1.75;;;15.00;99.90;;;;;;4997337;28;20218;-56
2022/07/10 01:12:43;;;;;;;3.38;1.70;;;14.90;99.90;;;;;;5001087;28;20198;-56
2022/07/10 01:15:10;;;;;;;2.60;1.80;;;14.90;99.90;;;;;;4987011;28;20064;-56
2022/07/10 01:17:38;;;;;;;5.55;2.47;;;14.70;99.90;;;;;;4987806;28;20521;-56
2022/07/10 01:20:08;;;;;;;7.68;1.60;;;14.60;99.90;;;;;;4987581;28;20793;-56
2022/07/10 01:22:39;;;;;;;2.00;1.77;;;14.60;99.90;;;;;;4988115;28;20045;-55
2022/07/10 01:25:06;;;;;;;5.47;2.30;;;14.50;99.90;;;;;;4989435;28;20803;-54
2022/07/10 01:27:33;;;;;;;2.83;1.60;;;14.50;99.90;;;;;;4987632;28;20055;-56
2022/07/10 01:30:00;;;;;;;5.13;1.65;;;14.50;99.90;;;;;;4987721;28;20041;-55
2022/07/10 01:32:36;;;;;;;3.67;1.80;;;14.50;99.90;;;;;;4987137;28;20400;-55
2022/07/10 01:35:04;;;;;;;4.72;1.73;;;14.50;99.90;;;;;;4988799;28;20143;-56
2022/07/10 01:37:32;;;;;;;1.80;1.65;;;14.50;99.90;;;;;;4992062;28;20583;-54
2022/07/10 01:39:59;;;;;;;4.20;2.03;;;14.50;99.90;;;;;;5008931;28;20049;-55
2022/07/10 01:42:27;;;;;;;2.75;1.75;;;14.50;99.90;;;;;;5007189;28;20113;-55
2022/07/10 01:44:54;;;;;;;4.80;1.70;;;14.50;99.90;;;;;;5005458;28;20059;-54
2022/07/10 01:47:25;;;;;;;7.57;1.83;;;14.60;99.90;;;;;;5008030;28;20029;-55
2022/07/10 01:49:53;;;;;;;2.03;1.65;;;14.60;99.90;;;;;;5007718;28;20151;-54
2022/07/10 01:52:21;;;;;;;2.10;1.70;;;14.60;99.90;;;;;;5027564;28;20642;-54
2022/07/10 01:54:48;;;;;;;6.53;2.10;;;14.60;99.90;;;;;;5008096;28;20047;-56
2022/07/10 01:57:15;;;;;;;5.57;2.15;;;14.70;99.90;;;;;;5012321;28;20133;-56
2022/07/10 01:59:42;;;;;;;10.05;2.53;;;14.70;99.90;;;;;;5008125;28;20790;-56
2022/07/10 02:02:09;;;;;;;2.13;1.60;;;14.70;99.90;;;;;;5011343;28;20051;-57
2022/07/10 02:04:42;;;;;;;3.03;2.05;;;14.70;99.90;;;;;;5011542;28;20051;-56
2022/07/10 02:07:18;;;;;;;5.13;1.58;;;14.70;99.90;;;;;;5006895;28;20044;-55
2022/07/10 02:09:45;;;;;;;2.33;1.70;;;14.80;99.90;;;;;;5006334;28;20194;-56
2022/07/10 02:12:14;;;;;;;2.00;1.73;;;14.80;99.90;;;;;;5005437;28;20360;-57
2022/07/10 02:14:42;;;;;;;1.90;1.48;;;14.80;99.90;;;;;;4991014;28;20037;-56
2022/07/10 02:17:09;;;;;;;4.80;1.80;;;14.80;99.90;;;;;;4991201;28;20218;-57
2022/07/10 02:19:36;;;;;;;3.40;1.38;;;14.80;99.90;;;;;;4990655;28;20033;-55
2022/07/10 02:22:03;;;;;;;3.08;1.33;;;14.90;99.90;;;;;;4992016;28;20053;-54
2022/07/10 02:24:30;;;;;;;1.70;1.60;;;14.90;99.90;;;;;;4989832;28;20115;-57
2022/07/10 02:26:57;;;;;;;5.88;2.00;;;14.90;99.90;;;;;;4993610;28;20033;-56
2022/07/10 02:29:24;;;;;;;6.57;1.90;;;14.90;99.90;;;;;;4988771;28;20048;-56
2022/07/10 02:31:52;;;;;;;1.88;1.60;;;14.80;99.90;;;;;;4991997;28;20195;-57
2022/07/10 02:34:19;;;;;;;4.82;1.70;;;14.80;99.90;;;;;;4987090;28;20905;-56
2022/07/10 02:36:46;;;;;;;6.10;2.15;;;14.80;99.90;;;;;;4991151;28;20037;-55
2022/07/10 02:39:13;;;;;;;4.53;2.50;;;14.80;99.90;;;;;;5006081;28;20586;-54
2022/07/10 02:41:41;;;;;;;3.47;2.38;;;14.80;99.90;;;;;;5012033;28;20041;-55
2022/07/10 02:44:08;;;;;;;2.30;2.10;;;14.90;99.90;;;;;;5010121;28;20068;-56
2022/07/10 02:46:35;;;;;;;2.80;1.85;;;14.90;99.90;;;;;;5010353;28;20808;-57
2022/07/10 02:49:04;;;;;;;2.05;1.85;;;15.00;99.90;;;;;;5005412;28;20051;-55
2022/07/10 02:51:31;;;;;;;4.35;1.75;;;15.00;99.90;;;;;;5010095;28;20210;-56
2022/07/10 02:53:58;;;;;;;3.42;1.80;;;15.00;99.90;;;;;;5010625;28;20238;-58
2022/07/10 02:56:25;;;;;;;1.83;1.60;;;15.10;99.90;;;;;;5005706;28;20430;-56
2022/07/10 02:58:52;;;;;;;3.33;1.90;;;15.10;99.90;;;;;;5010261;28;20068;-56
2022/07/10 03:01:19;;;;;;;2.20;1.83;;;15.10;99.90;;;;;;5009313;28;20048;-56
2022/07/10 03:03:46;;;;;;;1.63;1.45;;;15.10;99.90;;;;;;5007997;28;20048;-55
2022/07/10 03:06:14;;;;;;;;;;;15.20;99.90;;;;;;5009642;28;20098;-56
2022/07/10 03:08:41;;;;;;;1.83;1.45;;;15.20;99.90;;;;;;5010628;28;20034;-56
2022/07/10 03:11:09;;;;;;;2.00;1.50;;;15.20;99.90;;;;;;4997200;28;20329;-57
2022/07/10 03:13:36;;;;;;;2.97;1.55;;;15.20;99.90;;;;;;5011695;28;20462;-56
2022/07/10 03:16:03;;;;;;;1.60;1.40;;;15.20;99.90;;;;;;5005936;28;20155;-56
2022/07/10 03:18:30;;;;;;;4.97;1.90;;;15.30;99.90;;;;;;4992887;28;20840;-56
2022/07/10 03:20:58;;;;;;;2.50;1.83;;;15.30;99.90;;;;;;4989796;28;20041;-55
2022/07/10 03:23:25;;;;;;;4.57;1.98;;;15.30;99.90;;;;;;4990639;28;20110;-55
2022/07/10 03:25:52;;;;;;;2.25;1.83;;;15.30;99.90;;;;;;4990891;28;20048;-56
2022/07/10 03:28:21;;;;;;;1.70;1.60;;;15.30;99.90;;;;;;5002181;28;20083;-55
2022/07/10 03:30:48;;;;;;;3.17;2.05;;;15.30;99.90;;;;;;4987982;28;20589;-56
2022/07/10 03:33:15;;;;;;;2.83;1.90;;;15.30;99.90;;;;;;4989752;28;20467;-56
2022/07/10 03:35:42;;;;;;;2.95;1.75;;;15.30;99.90;;;;;;5006342;28;20063;-57
2022/07/10 03:38:09;;;;;;;4.22;2.00;;;15.30;99.90;;;;;;4997789;28;20040;-54
2022/07/10 03:40:36;;;;;;;2.10;1.90;;;15.30;99.90;;;;;;5026718;28;20044;-57
2022/07/10 03:43:03;;;;;;;2.60;2.00;;;15.30;99.90;;;;;;5009867;28;20041;-57
2022/07/10 03:45:30;;;;;;;3.40;1.80;;;15.30;99.90;;;;;;5024251;28;20040;-57
2022/07/10 03:47:57;;;;;;;2.13;1.92;;;15.30;99.90;;;;;;5019494;28;20148;-55
2022/07/10 03:50:24;;;;;;;2.92;1.83;;;15.30;99.90;;;;;;5011062;28;20048;-54
2022/07/10 03:52:51;;;;;;;;;;;15.30;99.90;;;;;;5026468;28;20067;-56
2022/07/10 03:55:18;;;;;;;3.23;2.30;;;15.30;99.90;;;;;;5011607;28;20431;-55
2022/07/10 03:57:54;;;;;;;5.22;2.20;;;15.40;99.90;;;;;;5007542;28;20051;-56
2022/07/10 04:00:23;;;;;;;4.35;2.05;;;15.40;99.90;;;;;;5008693;28;20117;-56
2022/07/10 04:02:57;;;;;;;3.20;2.25;;;15.40;99.90;;;;;;5007572;28;20036;-56
2022/07/10 04:05:26;;;;;;;2.83;2.42;;;15.40;99.90;;;;;;5006169;28;20794;-57
2022/07/10 04:07:54;;;;;;;4.47;2.88;;;15.40;99.90;;;;;;5006608;28;20536;-55
2022/07/10 04:10:21;;;;;;;2.97;2.67;;;15.40;99.90;;;;;;5006289;28;20059;-57
2022/07/10 04:12:48;;;;;;;4.03;1.83;;;15.40;99.90;;;;;;4989857;28;20044;-57
2022/07/10 04:15:16;;;;;;;2.65;1.73;;;15.40;99.90;;;;;;4992002;28;20560;-57
2022/07/10 04:17:43;;;;;;;2.63;2.10;;;15.40;99.90;;;;;;4986431;28;20041;-56
2022/07/10 04:20:11;;;;;;;2.92;2.33;;;15.40;99.90;;;;;;4990442;28;20048;-56
2022/07/10 04:22:38;;;;;;;5.25;1.98;;;15.40;99.90;;;;;;4989873;28;20052;-56
2022/07/10 04:25:06;;;;;;;3.00;1.80;;;15.50;99.90;;;;;;4991204;28;20063;-58
2022/07/10 04:27:33;;;;;;;4.70;2.47;;;15.40;99.90;;;;;;4985637;28;20077;-57
2022/07/10 04:30:01;;;;;;;3.97;2.13;;;15.40;99.90;;;;;;4991881;28;20156;-57
2022/07/10 04:32:29;;;;;;;4.50;2.47;;;15.50;99.90;;;;;;4985563;28;20044;-57
2022/07/10 04:34:56;;;;;;;4.78;3.45;;;15.40;99.90;;;;;;4987350;28;20037;-57
2022/07/10 04:37:23;;;;;;;4.05;2.72;;;15.40;99.90;;;;;;5003054;28;20059;-57
2022/07/10 04:39:50;;;;;;;4.25;3.03;;;15.40;99.90;;;;;;4988179;28;20636;-57
2022/07/10 04:42:24;;;;;;;3.55;2.80;;;15.40;99.90;;;;;;4989589;28;20037;-56
2022/07/10 04:44:51;;;;;;;7.47;3.28;;;15.30;99.90;;;;;;4989710;28;20049;-56
2022/07/10 04:47:18;;;;;;;2.80;2.47;;;15.30;99.90;;;;;;4992525;28;20106;-57
2022/07/10 04:49:45;;;;;;;4.53;2.25;;;15.30;99.90;;;;;;4992533;28;20151;-56
2022/07/10 04:52:12;;;;;;;3.33;2.78;;;15.30;99.90;;;;;;4989222;28;20303;-55
2022/07/10 04:54:39;;;;;;;3.95;2.85;;;15.30;99.90;;;;;;4990839;28;20502;-57
2022/07/10 04:57:06;;;;;;;4.45;2.45;;;15.30;99.90;;;;;;4988264;28;20069;-56
2022/07/10 04:59:33;;;;;;;4.68;2.72;;;15.30;99.90;;;;;;5003495;28;20056;-55
2022/07/10 05:02:00;;;;;;;5.32;2.70;;;15.30;99.90;;;;;;4987997;28;20376;-56
2022/07/10 05:04:28;;;;;;;5.40;2.97;;;15.30;99.90;;;;;;4998781;28;20051;-57
2022/07/10 05:06:55;;;;;;;6.07;3.20;;;15.30;99.90;;;;;;5006482;28;20208;-56
2022/07/10 05:09:22;;;;;;;5.82;3.67;;;15.30;99.90;;;;;;5004978;28;20137;-56
2022/07/10 05:11:49;;;;;;;8.32;3.25;;;15.30;99.90;;;;;;5000312;28;20727;-55
2022/07/10 05:14:16;;;;;;;5.75;3.20;;;15.30;99.90;;;;;;4992193;28;20063;-55
2022/07/10 05:16:43;;;;;;;4.05;3.25;;;15.30;99.90;;;;;;5004916;28;20040;-56
2022/07/10 05:19:10;;;;;;;5.55;3.08;;;15.30;99.90;;;;;;5001867;28;20041;-56
2022/07/10 05:21:37;;;;;;;7.45;3.58;;;15.30;99.90;;;;;;4989974;28;20041;-57
2022/07/10 05:24:04;;;;;;;6.25;3.33;;;15.30;99.90;;;;;;4989015;28;20861;-57
2022/07/10 05:26:31;;;;;;;5.03;3.15;;;15.30;99.90;;;;;;4985885;28;20052;-56
2022/07/10 05:28:59;;;;;;;4.20;3.35;;;15.30;99.90;;;;;;4990905;28;20037;-57
2022/07/10 05:31:26;;;;;;;3.55;2.97;;;15.40;99.90;;;;;;4985758;28;20323;-57
2022/07/10 05:33:53;;;;;;;7.43;4.45;;;15.40;99.90;;;;;;4988130;28;20041;-56
2022/07/10 05:36:20;;;;;;;4.53;3.35;;;15.40;99.90;;;;;;4985177;28;20048;-57
2022/07/10 05:38:47;;;;;;;6.45;3.90;;;15.40;99.90;;;;;;5002843;28;20816;-55
2022/07/10 05:41:14;;;;;;;8.77;3.25;;;15.40;99.90;;;;;;5007956;28;20571;-57
2022/07/10 05:43:41;;;;;;;4.40;3.33;;;15.50;99.90;;;;;;5007320;28;20041;-58
2022/07/10 05:46:08;;;;;;;5.78;3.83;;;15.50;99.90;;;;;;5009843;28;20385;-56
2022/07/10 05:48:35;;;;;;;4.35;3.03;;;15.60;99.90;;;;;;5016917;28;20313;-55
2022/07/10 05:51:03;;;;;;;3.70;3.15;;;15.60;99.90;;;;;;5009991;28;20040;-55
2022/07/10 05:53:50;;;;;;;3.78;3.35;;;15.70;99.90;;;;;;5007779;28;20060;-57
2022/07/10 05:56:17;;;;;;;6.00;3.80;;;15.70;99.90;;;;;;5010761;28;20036;-57
2022/07/10 05:58:44;;;;;;;5.57;3.60;;;15.80;99.90;;;;;;5007078;28;20048;-55
2022/07/10 06:01:12;;;;;;;5.43;3.85;;;15.90;99.90;;;;;;5022317;28;20041;-58
2022/07/10 06:03:39;;;;;;;5.43;4.13;;;15.90;99.90;;;;;;5003170;28;20052;-55
2022/07/10 06:06:07;;;;;;;3.80;3.40;;;16.00;99.90;;;;;;5002766;28;20487;-57
2022/07/10 06:08:34;;;;;;;4.68;3.60;;;16.00;99.90;;;;;;5005723;28;20192;-56
2022/07/10 06:11:01;;;;;;;4.68;3.90;;;16.00;99.90;;;;;;4999284;28;20043;-55
2022/07/10 06:13:28;;;;;;;7.65;4.43;;;16.10;99.90;;;;;;4996156;28;20041;-57
2022/07/10 06:15:55;;;;;;;5.20;4.10;;;16.10;99.90;;;;;;5023638;28;20071;-56
2022/07/10 06:18:22;;;;;;;4.32;3.92;;;16.20;99.90;;;;;;5008812;28;20555;-55
2022/07/10 06:20:49;;;;;;;4.78;4.07;;;16.10;99.90;;;;;;5007582;28;20040;-55
2022/07/10 06:23:16;;;;;;;7.05;4.53;;;16.10;99.90;;;;;;5007293;28;20583;-54
2022/07/10 06:25:43;;;;;;;6.68;4.90;;;16.20;99.90;;;;;;5010150;28;20167;-54
2022/07/10 06:28:10;;;;;;;6.40;4.05;;;16.20;99.90;;;;;;5006091;28;20539;-55
2022/07/10 06:30:37;;;;;;;3.95;3.35;;;16.10;99.90;;;;;;5009294;28;20193;-54
2022/07/10 06:33:04;;;;;;;5.53;4.55;;;16.10;99.90;;;;;;5011071;28;20585;-56
2022/07/10 06:35:31;;;;;;;5.20;4.50;;;16.10;99.90;;;;;;5009414;28;20060;-55
2022/07/10 06:37:59;;;;;;;5.70;4.32;;;16.10;99.90;;;;;;4999393;28;20152;-54
2022/07/10 06:40:28;;;;;;;6.90;4.07;;;16.10;99.90;;;;;;4992351;28;20143;-55
2022/07/10 06:42:55;;;;;;;10.95;4.68;;;16.10;99.90;;;;;;4991453;28;20037;-55
2022/07/10 06:45:22;;;;;;;6.95;4.70;;;16.10;99.90;;;;;;4990453;28;20055;-55
2022/07/10 06:47:55;;;;;;;9.90;5.05;;;16.20;99.90;;;;;;4996471;28;20108;-56
2022/07/10 06:50:26;;;;;;;7.28;4.70;;;16.20;99.90;;;;;;4992700;28;20033;-55
2022/07/10 06:52:53;;;;;;;7.00;5.75;;;16.20;99.90;;;;;;4992149;28;20044;-54
2022/07/10 06:55:21;;;;;;;7.43;5.10;;;16.30;99.90;;;;;;4990158;28;20203;-55
2022/07/10 06:57:49;;;;;;;6.50;4.75;;;16.30;99.90;;;;;;5002936;28;20110;-54
2022/07/10 07:00:16;;;;;;;4.75;4.35;;;16.40;99.90;;;;;;4992174;28;20336;-55
2022/07/10 07:02:43;;;;;;;5.28;3.85;;;16.50;99.90;;;;;;4989467;28;20645;-58
2022/07/10 07:05:11;;;;;;;12.68;5.03;;;16.60;99.90;;;;;;4997747;28;20305;-54
2022/07/10 07:07:38;;;;;;;7.60;5.10;;;16.80;99.90;;;;;;5010597;28;20036;-54
2022/07/10 07:10:07;;;;;;;6.85;5.35;;;17.00;99.90;;;;;;4998140;28;20563;-54
2022/07/10 07:12:34;;;;;;;10.25;6.38;;;17.10;99.90;;;;;;5007242;28;20139;-54
2022/07/10 07:15:02;;;;;;;5.47;4.97;;;17.20;99.90;;;;;;5002310;28;20044;-55
2022/07/10 07:17:45;;;;;;;6.80;4.80;;;17.40;99.90;;;;;;5004346;28;20037;-54
2022/07/10 07:23:10;;;;;;;6.40;5.30;;;17.70;99.90;;;;;;4990765;28;20041;-55
2022/07/10 07:25:41;;;;;;;5.40;4.22;;;17.80;99.90;;;;;;4990963;28;20567;-55
2022/07/10 07:28:10;;;;;;;6.15;4.63;;;17.80;99.90;;;;;;4991566;28;20042;-55
2022/07/10 07:30:37;;;;;;;6.03;4.20;;;17.90;99.90;;;;;;4987737;28;20106;-55
2022/07/10 07:33:04;;;;;;;6.35;5.70;;;18.00;99.90;;;;;;4986790;28;20717;-55
2022/07/10 07:35:31;;;;;;;7.97;4.85;;;18.10;99.90;;;;;;5003230;28;20045;-54
2022/07/10 07:38:00;;;;;;;5.30;4.63;;;18.20;99.90;;;;;;4998491;28;20055;-54
2022/07/10 07:40:28;;;;;;;7.78;6.45;;;18.30;99.90;;;;;;5009616;28;20563;-53
2022/07/10 07:42:55;;;;;;;6.18;5.00;;;18.40;99.90;;;;;;5009849;28;20109;-53
2022/07/10 07:45:23;;;;;;;11.57;5.85;;;18.50;99.90;;;;;;5010032;28;20657;-55
2022/07/10 07:48:04;;;;;;;4.93;4.40;;;18.60;99.90;;;;;;5016551;28;20151;-56
2022/07/10 07:50:33;;;;;;;9.88;5.50;;;18.60;99.90;;;;;;5013327;28;20041;-57
2022/07/10 07:53:02;;;;;;;7.90;5.55;;;18.70;99.90;;;;;;5023661;28;20126;-50
2022/07/10 07:55:30;;;;;;;5.45;4.63;;;18.70;99.90;;;;;;5013390;28;20028;-54
2022/07/10 07:57:58;;;;;;;5.95;4.10;;;18.80;99.90;;;;;;5000167;28;20074;-54
2022/07/10 08:00:27;;;;;;;6.88;4.88;;;18.90;99.90;;;;;;4986184;28;20839;-54
2022/07/10 08:02:57;;;;;;;9.45;6.07;;;18.90;99.90;;;;;;4984551;28;20070;-56
2022/07/10 08:05:25;;;;;;;7.82;5.78;;;19.00;99.90;;;;;;4989592;28;20410;-57
2022/07/10 08:07:55;;;;;;;5.60;4.13;;;19.00;99.90;;;;;;5004323;28;20119;-57
2022/07/10 08:10:24;;;;;;;5.70;4.55;;;19.10;99.90;;;;;;5014699;28;20039;-57
2022/07/10 08:12:51;;;;;;;6.60;4.95;;;19.10;99.90;;;;;;5013474;28;20568;-56
2022/07/10 08:15:22;;;;;;;9.52;5.25;;;19.10;99.90;;;;;;4990919;28;20041;-55
2022/07/10 08:17:50;;;;;;;7.15;6.07;;;19.10;99.90;;;;;;4985457;28;20568;-54
2022/07/10 08:20:18;;;;;;;7.25;5.28;;;19.00;99.90;;;;;;4990784;28;20650;-54
2022/07/10 08:22:46;;;;;;;10.18;5.25;;;18.90;99.90;;;;;;4986284;28;20153;-54
2022/07/10 08:25:14;;;;;;;8.27;4.90;;;18.90;99.90;;;;;;4990181;28;20571;-53
2022/07/10 08:27:41;;;;;;;8.60;4.78;;;18.90;99.90;;;;;;4987864;28;20151;-54
2022/07/10 08:30:09;;;;;;;6.40;5.30;;;18.90;99.90;;;;;;4987264;28;20169;-55
2022/07/10 08:32:38;;;;;;;6.72;5.65;;;18.90;99.90;;;;;;4990546;28;20410;-56
2022/07/10 08:35:06;;;;;;;4.75;3.70;;;18.80;99.90;;;;;;5000473;28;20033;-55
2022/07/10 08:37:38;;;;;;;6.38;4.45;;;18.70;99.90;;;;;;4986896;28;20098;-55
2022/07/10 08:40:08;;;;;;;6.93;5.10;;;18.80;99.90;;;;;;4970682;28;20041;-55
2022/07/10 08:42:35;;;;;;;6.75;5.55;;;18.70;99.90;;;;;;4991802;28;20033;-55
2022/07/10 08:45:03;;;;;;;5.75;4.70;;;18.70;99.90;;;;;;4984576;28;20045;-56
2022/07/10 08:47:31;;;;;;;7.03;5.03;;;18.60;99.90;;;;;;4980843;28;20037;-56
2022/07/10 08:50:04;;;;;;;8.23;5.32;;;18.60;99.90;;;;;;5010404;28;20036;-56
2022/07/10 08:52:43;;;;;;;6.80;5.53;;;18.60;99.90;;;;;;5019988;28;20044;-56
2022/07/10 08:55:14;;;;;;;6.30;5.20;;;18.60;99.90;;;;;;5007074;28;20048;-61
2022/07/10 08:57:43;;;;;;;6.65;5.00;;;18.60;99.90;;;;;;5007566;28;20051;-56
2022/07/10 09:00:10;;;;;;;6.03;4.25;;;18.60;99.90;;;;;;5008785;28;20033;-56
2022/07/10 09:02:37;;;;;;;7.80;5.07;;;18.60;99.90;;;;;;5006391;28;20044;-56
2022/07/10 09:05:08;;;;;;;9.05;5.88;;;18.60;99.90;;;;;;5005493;28;20227;-56
2022/07/10 09:07:41;;;;;;;6.85;5.22;;;18.60;99.90;;;;;;5004536;28;20288;-58
2022/07/10 09:10:10;;;;;;;4.90;4.50;;;18.60;99.90;;;;;;4993849;28;20367;-56
2022/07/10 09:12:53;;;;;;;4.15;3.60;;;18.60;99.90;;;;;;5002102;28;20040;-55
2022/07/10 09:15:23;;;;;;;5.68;4.80;;;18.70;99.90;;;;;;4987785;28;20033;-57
2022/07/10 09:17:54;;;;;;;5.10;3.97;;;18.80;99.90;;;;;;4986242;28;20045;-57
2022/07/10 09:20:32;;;;;;;6.40;4.20;;;19.00;99.90;;;;;;4987315;28;20835;-57
2022/07/10 09:23:20;;;;;;;8.15;4.90;;;19.20;99.90;;;;;;4982718;28;20149;-57
2022/07/10 09:25:49;;;;;;;5.60;4.97;;;19.50;99.90;;;;;;4989552;28;20041;-57
2022/07/10 09:28:18;;;;;;;7.22;3.60;;;19.80;99.90;;;;;;4986170;28;20505;-57
2022/07/10 09:30:46;;;;;;;5.60;4.10;;;20.20;99.90;;;;;;4987792;28;20756;-56
2022/07/10 09:33:26;;;;;;;4.82;4.32;;;20.60;99.90;;;;;;5001104;28;20083;-59
2022/07/10 09:36:13;;;;;;;4.85;4.03;;;20.90;99.90;;;;;;4985485;28;20033;-57
2022/07/10 09:38:43;;;;;;;5.68;3.42;;;21.20;99.90;;;;;;5001688;28;20583;-56
2022/07/10 09:41:22;;;;;;;7.43;3.92;;;21.40;99.90;;;;;;5007787;28;20049;-58
2022/07/10 09:43:55;;;;;;;5.47;4.18;;;21.60;99.90;;;;;;4999469;28;20119;-58
2022/07/10 09:46:28;;;;;;;9.27;3.63;;;21.60;99.90;;;;;;4983071;28;20400;-55
2022/07/10 09:49:28;;;;;;;4.63;3.42;;;21.60;99.90;;;;;;4990976;28;20044;-55
2022/07/10 09:51:56;;;;;;;5.53;3.40;;;21.50;99.90;;;;;;4967899;28;20221;-57
2022/07/10 09:54:23;;;;;;;4.05;3.65;;;21.40;99.90;;;;;;4987334;28;20033;-57
2022/07/10 09:56:51;;;;;;;5.10;3.50;;;21.40;99.90;;;;;;5003757;28;20747;-56
2022/07/10 09:59:19;;;;;;;4.68;3.42;;;21.30;99.90;;;;;;5002349;28;20859;-56
2022/07/10 10:01:48;;;;;;;10.32;3.88;;;21.30;99.90;;;;;;4986061;28;20675;-57
2022/07/10 10:04:18;;;;;;;7.47;3.70;;;21.20;99.90;;;;;;4985233;28;20041;-58
2022/07/10 10:06:58;;;;;;;4.32;3.40;;;21.10;99.90;;;;;;4988653;28;20445;-58
2022/07/10 10:09:29;;;;;;;4.57;3.45;;;21.10;99.90;;;;;;5005496;28;20040;-58
2022/07/10 10:12:00;;;;;;;4.25;3.85;;;21.00;99.90;;;;;;4999356;28;20044;-57
2022/07/10 10:14:28;;;;;;;6.03;4.15;;;21.00;99.90;;;;;;4987615;28;20041;-57
2022/07/10 10:16:56;;;;;;;4.13;3.72;;;21.10;99.90;;;;;;4991451;28;20733;-56
2022/07/10 10:22:12;;;;;;;5.80;3.50;;;21.10;99.90;;;;;;4988798;28;20336;-57
2022/07/10 10:24:43;;;;;;;4.68;3.88;;;21.10;99.90;;;;;;4992935;28;20059;-56
2022/07/10 10:27:10;;;;;;;4.43;3.95;;;21.00;99.90;;;;;;4988790;28;20033;-54
2022/07/10 10:29:39;;;;;;;4.03;3.63;;;21.00;99.90;;;;;;5003700;28;20048;-54
2022/07/10 10:32:08;;;;;;;4.53;3.03;;;20.90;99.90;;;;;;4991138;28;20025;-56
2022/07/10 10:34:43;;;;;;;3.85;2.92;;;20.80;99.90;;;;;;4986857;28;20041;-55
2022/07/10 10:37:40;;;;;;;9.35;4.43;;;20.80;99.90;;;;;;4998289;28;20040;-54
2022/07/10 10:40:09;;;;;;;8.60;4.53;;;20.80;99.90;;;;;;4990302;28;20145;-54
2022/07/10 10:42:43;;;;;;;7.43;3.55;;;20.90;99.90;;;;;;5008690;28;20045;-55
2022/07/10 10:45:23;;;;;;;5.07;3.35;;;21.10;99.90;;;;;;4989306;28;20040;-56
2022/07/10 10:48:00;;;;;;;6.35;3.47;;;21.40;99.90;;;;;;4994357;28;20174;-55
2022/07/10 10:50:53;;;;;;;7.32;3.58;;;21.60;99.90;;;;;;4989065;28;20067;-55
2022/07/10 10:53:26;;;;;;;4.90;3.13;;;21.70;99.90;;;;;;4991952;28;20148;-56
2022/07/10 10:56:13;;;;;;;5.13;3.47;;;21.70;99.90;;;;;;4992944;28;20266;-53
2022/07/10 10:58:45;;;;;;;8.32;4.18;;;21.70;99.90;;;;;;4989966;28;20049;-54
2022/07/10 11:01:23;;;;;;;3.55;3.00;;;21.60;99.90;;;;;;4989953;28;20371;-53
2022/07/10 11:04:08;;;;;;;4.88;3.85;;;21.50;99.90;;;;;;4987620;28;20799;-52
2022/07/10 11:06:45;;;;;;;4.03;3.17;;;21.50;99.90;;;;;;4987260;28;20053;-53
2022/07/10 11:09:25;;;;;;;3.65;3.35;;;21.60;99.90;;;;;;4998094;28;20575;-54
2022/07/10 11:12:03;;;;;;;5.70;3.55;;;21.60;99.90;;;;;;5011084;28;20304;-55
2022/07/10 11:14:31;;;;;;;7.35;3.45;;;21.80;99.90;;;;;;4987032;28;20063;-56
2022/07/10 11:16:58;;;;;;;4.50;2.80;;;22.10;99.90;;;;;;4989795;28;20218;-54
2022/07/10 11:19:28;;;;;;;5.03;3.95;;;22.40;99.90;;;;;;4989949;28;20564;-54
2022/07/10 11:22:37;;;;;;;5.32;3.25;;;22.70;99.90;;;;;;4987484;28;20052;-55
2022/07/10 11:25:43;;;;;;;3.20;2.85;;;22.90;99.90;;;;;;4991176;28;20040;-55
2022/07/10 11:28:14;;;;;;;4.43;3.15;;;23.00;99.90;;;;;;4965382;28;20614;-54
2022/07/10 11:30:51;;;;;;;4.28;3.47;;;23.10;99.90;;;;;;4991091;28;20040;-55
2022/07/10 11:33:20;;;;;;;7.40;3.42;;;23.30;99.90;;;;;;4987021;28;20670;-54
2022/07/10 11:35:49;;;;;;;5.00;3.72;;;23.40;97.40;;;;;;5003364;28;20744;-55
2022/07/10 11:38:26;;;;;;;2.97;2.78;;;23.60;94.20;;;;;;4980196;28;20109;-54
2022/07/10 11:40:54;;;;;;;4.28;2.78;;;23.40;92.20;;;;;;5007675;28;20289;-55
2022/07/10 11:43:25;;;;;;;6.65;2.80;;;23.30;94.20;;;;;;5011067;28;20052;-55
2022/07/10 11:45:59;;;;;;;5.32;3.38;;;23.20;94.20;;;;;;5010755;28;20182;-55
2022/07/10 11:48:26;;;;;;;3.10;2.75;;;23.10;94.70;;;;;;5008299;28;20355;-56
2022/07/10 11:50:53;;;;;;;3.97;2.83;;;23.10;99.90;;;;;;5008455;28;20045;-55
2022/07/10 11:53:25;;;;;;;6.65;3.15;;;23.10;98.50;;;;;;5010635;28;20041;-54
2022/07/10 11:55:53;;;;;;;3.45;2.80;;;23.20;95.50;;;;;;5009830;28;20352;-55
2022/07/10 11:58:20;;;;;;;3.97;2.35;;;23.30;94.30;;;;;;5007477;28;20398;-55
2022/07/10 12:01:09;;;;;;;3.35;2.88;;;23.40;93.40;;;;;;5026127;28;20784;-54
2022/07/10 12:03:36;;;;;;;4.80;2.90;;;23.50;94.60;;;;;;5005312;28;20345;-55
2022/07/10 12:06:06;;;;;;;4.25;2.65;;;23.50;94.20;;;;;;5008546;28;20278;-55
2022/07/10 12:08:46;;;;;;;4.35;2.70;;;23.40;93.90;;;;;;5001649;28;20048;-57
2022/07/10 12:11:16;;;;;;;4.75;2.83;;;23.40;99.90;;;;;;5003432;28;20773;-54
2022/07/10 12:13:44;;;;;;;5.07;2.50;;;23.50;98.40;;;;;;5006164;28;20052;-56
2022/07/10 12:16:12;;;;;;;3.88;2.47;;;23.60;96.70;;;;;;5011394;28;20118;-56
2022/07/10 12:18:41;;;;;;;6.13;3.00;;;23.60;94.80;;;;;;5007030;28;20850;-56
2022/07/10 12:21:11;;;;;;;2.78;2.17;;;23.60;94.60;;;;;;5009213;28;20044;-56
2022/07/10 12:23:41;;;;;;;6.75;2.65;;;23.80;95.30;;;;;;5006536;28;20597;-54
2022/07/10 12:26:10;;;;;;;2.88;2.45;;;24.10;93.00;;;;;;5016682;28;20037;-53
2022/07/10 12:28:54;;;;;;;2.80;2.22;;;24.40;96.50;;;;;;5010118;28;20367;-55
2022/07/10 12:31:29;;;;;;;3.38;2.03;;;24.70;93.90;;;;;;5004773;28;20371;-57
2022/07/10 12:34:01;;;;;;;2.42;2.22;;;24.90;82.20;;;;;;5006016;28;20044;-56
2022/07/10 12:36:52;;;;;;;2.65;1.90;;;25.00;78.40;;;;;;5008473;28;20029;-56
2022/07/10 12:39:22;;;;;;;3.30;2.22;;;25.00;79.40;;;;;;4987072;28;20321;-56
2022/07/10 12:41:59;;;;;;;4.05;2.40;;;25.00;81.30;;;;;;4990598;28;20856;-55
2022/07/10 12:44:38;;;;;;;5.97;2.30;;;25.20;87.20;;;;;;4988181;28;20274;-55
2022/07/10 12:47:11;;;;;;;2.75;2.10;;;25.30;82.00;;;;;;4989851;28;20041;-55
2022/07/10 12:49:53;;;;;;;3.85;2.28;;;25.50;85.50;;;;;;4997864;28;20029;-55
2022/07/10 12:52:25;;;;;;;4.18;3.05;;;25.80;79.40;;;;;;5005201;28;20041;-57
2022/07/10 12:55:17;;;;;;;2.05;1.77;;;25.90;77.50;;;;;;4970554;28;20077;-56
2022/07/10 12:57:54;;;;;;;4.40;2.33;;;26.20;71.40;;;;;;4989222;28;20125;-56
2022/07/10 13:00:24;;;;;;;;;;;26.40;68.30;;;;;;4989857;28;20044;-57
2022/07/10 13:03:00;;;;;;;2.78;1.85;;;26.60;63.30;;;;;;4988852;28;19921;-57
2022/07/10 13:05:41;;;;;;;5.95;2.28;;;26.70;62.90;;;;;;4989101;28;20198;-58
2022/07/10 13:08:25;;;;;;;2.10;1.70;;;26.70;56.90;;;;;;4984621;28;20647;-55